KFLLMYGF

Guest
Details From KFLL - Fort Lauderdale Hollywood Intl
To MYGF - Grand Bahama Intl
Flight Number -
Tags generated
Created
Modified
Stats Distance 84 nm / 155 km
Max Altitude 5,400 ft / 1,646 m
Waypoints 3
Social Downloads 0
Likes 0
Share VATSIM

Download

Looking for another format? Having issues loading an existing format? Contact us
Advertisement - Login to hide

Notes

Basic altitude profile: - Ascent Rate: 2500ft/min - Ascent Speed: 250kts - Cruise Altitude: 35000ft - Cruise Speed: 420kts - Descent Rate: 1500ft/min - Descent Speed: 250kts Options: - Use NATs: yes - Use PACOTS: no - Use low airways: yes - Use high airways: yes

Route

KFLL VALLY MYGF

ID Type Via Altitude Latitude Longitude Leg Dist Tot Dist Heading (true) Name
O KFLL APT - 0 ft / 0 m 26.07164˚ -80.15269˚ - 0 nm - Fort Lauderdale Hollywood Intl
VALLY FIX - 5,400 ft / 1,646 m 26.41553˚ -79.13878˚ 58 nm 58 nm 69° / 70° -
O MYGF APT - 0 ft / 0 m 26.55868˚ -78.69555˚ 25 nm 83 nm 70° / 70° Grand Bahama Intl

Altitude Profile

Advertisement - Login to hide

KFLL

Details ICAO KFLL (FLL)
Name Fort Lauderdale Hollywood Intl
Region United States
Timezone America/New_York (UTC-4.0)
Stats Elevation 9 ft / 3 m (AMSL)
Location 26.071638° -80.152694°
Runways 2
Magnetic Variation 6.808° W

METAR

KFLL 201953Z 11013KT 10SM SCT021 SCT110 OVC140 27/24 A3004 RMK AO2 SLP171 T02670239 $

Decode

TAF

TAF KFLL 201720Z 2018/2124 13015KT P6SM SCT025 BKN040 OVC100 FM202200 14013KT P6SM VCSH SCT020 OVC120 FM210300 11011KT P6SM OVC025 FM211400 13014G21KT P6SM OVC050

Decode

Departure Runways

ID Width Length Bearing (true) Bearing (mag) Surface Threshold Offset Overrun Length
09L 150 ft / 46 m 8,987 ft / 2,739 m 90.35° 97.16° Asphalt 577 ft / 176 m 10 ft / 3 m
09R 100 ft / 30 m 5,268 ft / 1,606 m 90.38° 97.19° Asphalt 320 ft / 98 m 0 ft / 0 m
27L 100 ft / 30 m 5,268 ft / 1,606 m 270.39° 277.20° Asphalt 142 ft / 43 m 0 ft / 0 m
27R 150 ft / 46 m 8,987 ft / 2,739 m 270.37° 277.18° Asphalt 604 ft / 184 m 10 ft / 3 m

MYGF

Details ICAO MYGF (FPO)
Name Grand Bahama Intl
Region Bahamas
Timezone America/Nassau (UTC-4.0)
Stats Elevation 7 ft / 2 m (AMSL)
Location 26.558684° -78.695553°
Runways 1
Magnetic Variation 7.763° W

METAR

MYGF 201900Z 16005KT 9999 FEW018 BKN060 BKN200 27/23 A3009

Decode

TAF

Not found

Destination Runways

ID Width Length Bearing (true) Bearing (mag) Surface Threshold Offset Overrun Length
06 151 ft / 46 m 11,016 ft / 3,358 m 60.89° 68.65° Asphalt 0 ft / 0 m 194 ft / 59 m
24 151 ft / 46 m 11,016 ft / 3,358 m 240.91° 248.67° Asphalt 0 ft / 0 m 200 ft / 61 m

Approach Navaids

Runway Type Ident Frequency Range Bearing (true) Bearing (mag) Slope Elevation
06 Localiser IZFP 109.70 MHz 18 nm / 33 km 60.91° 68.67° - 7 ft / 2 m (AMSL)
06 Glidescope IZFP 109.70 MHz 10 nm / 19 km 60.90° 68.66° 3.00° 7 ft / 2 m (AMSL)

Popular Alternatives